Clermont-Ferrand Auvergne Airport


Codes: LFLC/CFE
Name: Clermont-Ferrand Auvergne Airport
City: Clermont-Ferrand/Auvergne
Country: France
Elevation: 1090 ft.
Wikipedia:

Photos at Clermont-Ferrand Auvergne Airport


   Photos courtesy of SpottingLog. You can add your own sightings and photos by signing up for a free trial today.



No photos found.

Weather at Clermont-Ferrand Auvergne Airport


Time (UTC)DescriptionTempratureWindCloud coverageVisibilityPressureHumidity
17-Jun-2024 06:00Light Rain16°C2 mph, S100%10000m1013hPa90%
17-Jun-2024 09:00Light Rain17°C2 mph, SE100%10000m1014hPa90%
17-Jun-2024 12:00Light Rain24°C0 mph, E100%10000m1013hPa68%
17-Jun-2024 15:00Light Rain23°C4 mph, NE97%5331m1012hPa76%
17-Jun-2024 18:00Light Rain21°C2 mph, N99%10000m1012hPa91%
17-Jun-2024 21:00Light Rain17°C4 mph, SW86%10000m1014hPa93%
18-Jun-2024 00:00Overcast Clouds15°C7 mph, S92%10000m1013hPa94%
18-Jun-2024 03:00Overcast Clouds13°C9 mph, S88%10000m1013hPa95%
18-Jun-2024 06:00Broken Clouds16°C7 mph, S78%10000m1013hPa93%
18-Jun-2024 09:00Overcast Clouds22°C4 mph, S100%10000m1013hPa69%
18-Jun-2024 12:00Broken Clouds27°C4 mph, E82%10000m1012hPa54%
18-Jun-2024 15:00Overcast Clouds29°C7 mph, SE96%10000m1010hPa53%
18-Jun-2024 18:00Light Rain24°C4 mph, SW90%10000m1011hPa77%
18-Jun-2024 21:00Light Rain17°C2 mph, NW100%10000m1014hPa96%
19-Jun-2024 00:00Light Rain17°C2 mph, NW98%10000m1015hPa96%
19-Jun-2024 03:00Light Rain17°C2 mph, SE99%10000m1015hPa98%
19-Jun-2024 06:00Broken Clouds18°C4 mph, S78%10000m1015hPa95%
19-Jun-2024 09:00Scattered Clouds22°C2 mph, E29%10000m1015hPa73%
19-Jun-2024 12:00Scattered Clouds25°C7 mph, NE41%10000m1015hPa67%
19-Jun-2024 15:00Light Rain23°C4 mph, N38%10000m1015hPa86%
19-Jun-2024 18:00Light Rain24°C2 mph, N75%10000m1015hPa84%
19-Jun-2024 21:00Broken Clouds18°C4 mph, NW61%10000m1016hPa94%
20-Jun-2024 00:00Broken Clouds18°C2 mph, S81%10000m1015hPa98%
20-Jun-2024 03:00Light Rain17°C4 mph, S100%10000m1015hPa93%
20-Jun-2024 06:00Overcast Clouds17°C4 mph, S100%10000m1016hPa91%
20-Jun-2024 09:00Broken Clouds23°C7 mph, S64%10000m1014hPa71%
20-Jun-2024 12:00Light Rain23°C13 mph, SE68%405m1014hPa84%
20-Jun-2024 15:00Light Rain23°C2 mph, NW80%10000m1012hPa83%
20-Jun-2024 18:00Light Rain21°C4 mph, NW65%10000m1011hPa95%
20-Jun-2024 21:00Light Rain18°C4 mph, W18%10000m1012hPa99%
21-Jun-2024 00:00Moderate Rain17°C2 mph, SE33%10000m1014hPa95%
21-Jun-2024 03:00Light Rain16°C4 mph, SW100%10000m1015hPa95%
21-Jun-2024 06:00Light Rain16°C4 mph, W100%10000m1015hPa93%
21-Jun-2024 09:00Overcast Clouds20°C7 mph, SW100%10000m1016hPa67%
21-Jun-2024 12:00Overcast Clouds23°C7 mph, SW95%10000m1016hPa53%
21-Jun-2024 15:00Light Rain23°C11 mph, SW74%10000m1016hPa58%
21-Jun-2024 18:00Light Rain21°C4 mph, SW43%10000m1016hPa71%
21-Jun-2024 21:00Clear Sky15°C4 mph, W5%10000m1018hPa86%
22-Jun-2024 00:00Clear Sky13°C4 mph, SW7%10000m1017hPa92%
22-Jun-2024 03:00Few Clouds12°C2 mph, SW22%10000m1016hPa93%